Time;durP1;ratioP1;P1;durP2;ratioP2;P2;SDS_P1;SDS_P2;PMS_P1;PMS_P2;Temp;Humidity;BMP_temperature;BMP_pressure;BME280_temperature;BME280_humidity;BME280_pressure;Samples;Min_cycle;Max_cycle;Signal;HPM_P1;HPM_P2
2023/10/08 00:00:53;;;;;;;6.72;3.30;;;;;;;17.41;100.00;102347.03;5074262;28;20048;-73
2023/10/08 00:03:20;;;;;;;7.95;3.58;;;;;;;17.40;100.00;102329.41;5074663;28;20081;-73
2023/10/08 00:05:46;;;;;;;5.55;3.38;;;;;;;17.41;100.00;102348.84;5074382;28;20429;-73
2023/10/08 00:08:15;;;;;;;6.32;3.55;;;;;;;17.39;100.00;102345.38;5074621;28;20041;-73
2023/10/08 00:10:44;;;;;;;4.68;3.17;;;;;;;17.38;100.00;102338.38;5074313;28;20052;-73
2023/10/08 00:13:10;;;;;;;5.45;3.80;;;;;;;17.38;100.00;102346.31;5074541;28;20035;-73
2023/10/08 00:15:36;;;;;;;5.65;3.65;;;;;;;17.37;100.00;102339.28;5074102;28;20126;-73
2023/10/08 00:18:05;;;;;;;6.95;3.47;;;;;;;17.38;100.00;102348.97;5074670;28;20354;-73
2023/10/08 00:20:42;;;;;;;4.20;3.20;;;;;;;17.38;100.00;102356.91;5074735;28;20044;-73
2023/10/08 00:23:09;;;;;;;5.78;3.33;;;;;;;17.38;100.00;102343.66;5078719;28;20083;-73
2023/10/08 00:25:40;;;;;;;9.20;4.05;;;;;;;17.38;100.00;102338.38;5078230;28;20058;-73
2023/10/08 00:28:10;;;;;;;5.65;3.60;;;;;;;17.36;100.00;102325.19;5078546;28;20025;-73
2023/10/08 00:30:38;;;;;;;8.38;4.70;;;;;;;17.35;100.00;102327.91;5077629;28;20040;-73
2023/10/08 00:33:04;;;;;;;6.82;4.10;;;;;;;17.36;100.00;102327.00;5078525;28;20056;-73
2023/10/08 00:35:30;;;;;;;6.03;3.92;;;;;;;17.34;100.00;102323.56;5077678;28;20074;-73
2023/10/08 00:38:00;;;;;;;4.57;3.50;;;;;;;17.32;100.00;102315.69;5078169;28;20044;-73
2023/10/08 00:40:35;;;;;;;6.45;4.20;;;;;;;17.32;100.00;102305.09;5078235;28;20040;-73
2023/10/08 00:43:03;;;;;;;6.07;3.63;;;;;;;17.32;100.00;102304.22;5078289;28;20389;-73
2023/10/08 00:45:30;;;;;;;4.72;3.40;;;;;;;17.32;100.00;102296.28;5089291;28;20035;-73
2023/10/08 00:47:57;;;;;;;9.15;3.60;;;;;;;17.31;100.00;102292.78;5094062;28;20114;-73
2023/10/08 00:50:30;;;;;;;8.05;4.35;;;;;;;17.30;100.00;102288.44;5094406;28;20042;-73
2023/10/08 00:53:00;;;;;;;6.93;4.57;;;;;;;17.29;100.00;102285.84;5095757;28;20346;-73
2023/10/08 00:55:29;;;;;;;7.70;4.28;;;;;;;17.27;100.00;102292.06;5090995;28;20046;-73
2023/10/08 00:57:58;;;;;;;7.50;3.97;;;;;;;17.25;100.00;102296.56;5089086;28;20071;-73
2023/10/08 01:03:04;;;;;;;8.27;4.57;;;;;;;17.25;100.00;102307.16;4995185;28;20078;-74
2023/10/08 01:05:50;;;;;;;10.18;4.20;;;;;;;17.23;100.00;102326.69;5087066;28;20039;-74
2023/10/08 01:11:00;;;;;;;8.13;3.95;;;;;;;17.20;100.00;102330.31;5090793;28;20051;-74
2023/10/08 01:13:27;;;;;;;6.78;3.97;;;;;;;17.20;100.00;102327.69;5091259;28;20059;-74
2023/10/08 01:15:52;;;;;;;10.63;4.45;;;;;;;17.18;100.00;102334.84;5090342;28;20032;-74
2023/10/08 01:18:28;;;;;;;6.35;4.03;;;;;;;17.18;100.00;102315.44;5092466;28;20269;-74
2023/10/08 01:20:54;;;;;;;6.38;3.88;;;;;;;17.17;100.00;102321.66;5087856;28;20063;-74
2023/10/08 01:23:21;;;;;;;8.00;4.35;;;;;;;17.17;100.00;102329.59;5088513;28;20036;-74
2023/10/08 01:25:52;;;;;;;11.23;4.57;;;;;;;17.14;100.00;102330.59;5087905;28;20028;-74
2023/10/08 01:28:31;;;;;;;6.68;4.03;;;;;;;17.12;100.00;102303.34;5087994;28;20036;-74
2023/10/08 01:31:00;;;;;;;6.47;4.45;;;;;;;17.12;100.00;102310.41;5087713;28;20037;-74
2023/10/08 01:33:29;;;;;;;7.93;4.40;;;;;;;17.11;100.00;102314.00;5086660;28;20089;-74
2023/10/08 01:35:55;;;;;;;12.05;5.32;;;;;;;17.08;100.00;102313.22;5087590;28;20055;-74
2023/10/08 01:38:23;;;;;;;9.45;5.05;;;;;;;17.06;100.00;102317.72;5088034;28;20084;-74
2023/10/08 01:40:51;;;;;;;7.25;4.65;;;;;;;17.05;100.00;102317.78;5089036;28;20036;-74
2023/10/08 01:43:17;;;;;;;10.07;4.75;;;;;;;17.02;100.00;102329.34;5096994;28;20036;-74
2023/10/08 01:45:47;;;;;;;10.40;4.93;;;;;;;17.02;100.00;102332.00;5096762;28;20028;-74
2023/10/08 01:48:12;;;;;;;10.25;4.82;;;;;;;17.01;100.00;102334.75;5097282;28;20331;-74
2023/10/08 01:50:38;;;;;;;7.85;4.53;;;;;;;16.99;100.00;102334.81;5096934;28;20092;-74
2023/10/08 01:53:05;;;;;;;8.80;4.68;;;;;;;16.98;100.00;102343.66;5096818;28;20050;-74
2023/10/08 01:55:44;;;;;;;;;;;;;;;16.96;100.00;102353.44;5097080;28;20080;-74
2023/10/08 01:58:12;;;;;;;8.02;4.53;;;;;;;16.95;100.00;102364.94;5096585;28;19942;-74
2023/10/08 02:00:42;;;;;;;8.90;4.80;;;;;;;16.95;100.00;102372.03;5096551;28;20195;-74
2023/10/08 02:03:07;;;;;;;13.07;5.43;;;;;;;16.94;100.00;102370.34;5089639;28;20028;-74
2023/10/08 02:05:34;;;;;;;10.20;5.93;;;;;;;16.91;100.00;102360.72;5076121;28;20085;-74
2023/10/08 02:07:59;;;;;;;11.70;5.30;;;;;;;16.93;100.00;102365.94;5085984;28;20039;-74
2023/10/08 02:10:25;;;;;;;11.63;5.72;;;;;;;16.92;100.00;102372.16;5096158;28;20050;-74
2023/10/08 02:12:50;;;;;;;7.65;4.68;;;;;;;16.94;100.00;102365.03;5095927;28;20028;-74
2023/10/08 02:15:15;;;;;;;8.68;4.97;;;;;;;16.94;100.00;102363.25;5096381;28;20035;-74
2023/10/08 02:17:43;;;;;;;11.32;5.70;;;;;;;16.92;100.00;102354.53;5095924;28;20870;-74
2023/10/08 02:20:09;;;;;;;8.35;4.82;;;;;;;16.93;100.00;102353.56;5096601;28;20096;-74
2023/10/08 02:22:34;;;;;;;10.85;5.32;;;;;;;16.93;100.00;102356.22;5094710;28;20043;-74
2023/10/08 02:25:03;;;;;;;9.32;4.97;;;;;;;16.94;100.00;102351.81;5076416;28;20032;-74
2023/10/08 02:27:28;;;;;;;9.38;4.55;;;;;;;16.93;100.00;102348.28;5075801;28;20392;-74
2023/10/08 02:29:54;;;;;;;8.85;4.70;;;;;;;16.94;100.00;102339.44;5076241;28;20028;-74
2023/10/08 02:32:22;;;;;;;8.23;4.70;;;;;;;16.94;100.00;102341.22;5075783;28;20036;-74
2023/10/08 02:34:48;;;;;;;7.40;4.70;;;;;;;16.93;100.00;102343.00;5091347;28;20028;-74
2023/10/08 02:37:15;;;;;;;8.05;5.07;;;;;;;16.92;100.00;102349.22;5096159;28;20108;-74
2023/10/08 02:39:40;;;;;;;6.63;5.18;;;;;;;16.91;100.00;102350.13;5077754;28;20040;-74
2023/10/08 02:42:10;;;;;;;11.75;4.93;;;;;;;16.90;100.00;102361.66;5075974;28;20100;-74
2023/10/08 02:44:41;;;;;;;9.48;5.00;;;;;;;16.89;100.00;102358.13;5089253;28;20385;-74
2023/10/08 02:47:20;;;;;;;8.05;5.25;;;;;;;16.89;100.00;102357.28;5096013;28;20386;-74
2023/10/08 02:49:48;;;;;;;8.82;5.30;;;;;;;16.88;100.00;102358.19;5077193;28;20462;-74
2023/10/08 02:52:15;;;;;;;6.18;4.43;;;;;;;16.87;100.00;102362.63;5075585;28;20339;-74
2023/10/08 02:54:41;;;;;;;6.57;4.68;;;;;;;16.87;100.00;102354.69;5075436;28;20032;-74
2023/10/08 02:57:14;;;;;;;11.57;5.15;;;;;;;16.87;100.00;102353.84;5075604;28;20072;-74
2023/10/08 02:59:44;;;;;;;8.00;5.07;;;;;;;16.85;100.00;102361.00;5075525;28;20249;-73
2023/10/08 03:02:18;;;;;;;11.27;5.20;;;;;;;16.81;100.00;102354.94;5075994;28;20331;-73
2023/10/08 03:04:45;;;;;;;8.50;5.03;;;;;;;16.80;100.00;102358.50;5075724;28;20032;-73
2023/10/08 03:07:21;;;;;;;9.13;4.88;;;;;;;16.77;100.00;102356.00;5075526;28;20048;-73
2023/10/08 03:09:49;;;;;;;11.82;5.03;;;;;;;16.75;100.00;102355.19;5077851;28;20028;-73
2023/10/08 03:12:16;;;;;;;7.90;5.03;;;;;;;16.74;100.00;102358.78;5095864;28;20031;-73
2023/10/08 03:14:49;;;;;;;6.97;4.95;;;;;;;16.72;100.00;102355.34;5079320;28;20050;-73
2023/10/08 03:17:20;;;;;;;11.27;5.30;;;;;;;16.73;100.00;102345.63;5075574;28;20251;-73
2023/10/08 03:19:48;;;;;;;7.40;4.40;;;;;;;16.72;100.00;102352.69;5074987;28;20335;-73
2023/10/08 03:22:18;;;;;;;6.60;5.13;;;;;;;16.71;100.00;102348.31;5075055;28;20294;-73
2023/10/08 03:24:47;;;;;;;10.63;5.55;;;;;;;16.70;100.00;102365.13;5075146;28;20339;-73
2023/10/08 03:27:20;;;;;;;9.10;5.10;;;;;;;16.65;100.00;102360.03;5075085;28;20047;-73
2023/10/08 03:29:46;;;;;;;8.52;5.82;;;;;;;16.63;100.00;102366.31;5074873;28;20044;-73
2023/10/08 03:32:15;;;;;;;8.25;5.13;;;;;;;16.63;100.00;102375.09;5074668;28;20032;-73
2023/10/08 03:34:47;;;;;;;6.10;5.00;;;;;;;16.62;100.00;102375.16;5075107;28;20044;-73
2023/10/08 03:37:21;;;;;;;7.93;4.70;;;;;;;16.59;100.00;102386.75;5074989;28;20036;-73
2023/10/08 03:42:56;;;;;;;8.38;5.78;;;;;;;16.55;100.00;102392.19;5032347;28;20049;-73
2023/10/08 03:48:06;;;;;;;10.73;5.93;;;;;;;16.51;100.00;102396.75;5057621;28;20062;-73
2023/10/08 03:50:40;;;;;;;9.90;5.22;;;;;;;16.50;100.00;102392.41;5073337;28;20119;-73
2023/10/08 03:53:11;;;;;;;8.63;5.97;;;;;;;16.48;100.00;102389.81;5073701;28;20020;-73
2023/10/08 03:55:43;;;;;;;10.98;6.05;;;;;;;16.48;100.00;102400.41;5073975;28;20050;-73
2023/10/08 03:58:27;;;;;;;12.27;6.10;;;;;;;16.46;100.00;102401.38;5074757;28;20254;-73
2023/10/08 04:01:08;;;;;;;6.85;5.28;;;;;;;16.45;100.00;102399.66;5074795;28;20032;-73
2023/10/08 04:06:30;;;;;;;8.70;5.55;;;;;;;16.41;100.00;102406.88;5084690;28;20354;-73
2023/10/08 04:11:49;;;;;;;8.00;5.68;;;;;;;16.37;100.00;102423.78;5094522;28;20066;-73
2023/10/08 04:14:18;;;;;;;10.90;5.85;;;;;;;16.33;100.00;102435.38;5085864;28;20040;-73
2023/10/08 04:16:44;;;;;;;9.23;5.57;;;;;;;16.31;100.00;102432.78;5073966;28;20029;-73
2023/10/08 04:19:10;;;;;;;6.88;5.10;;;;;;;16.31;100.00;102429.28;5076887;28;20338;-73
2023/10/08 04:21:36;;;;;;;9.82;5.80;;;;;;;16.29;100.00;102432.00;5093883;28;20040;-73
2023/10/08 04:24:08;;;;;;;8.18;5.25;;;;;;;16.30;100.00;102439.00;5094289;28;20038;-73
2023/10/08 04:26:34;;;;;;;6.63;5.25;;;;;;;16.28;100.00;102442.63;5094293;28;20361;-73
2023/10/08 04:29:02;;;;;;;9.35;5.40;;;;;;;16.27;100.00;102441.75;5094493;28;20068;-73
2023/10/08 04:31:37;;;;;;;8.03;4.97;;;;;;;16.26;100.00;102436.53;5094163;28;20322;-73
2023/10/08 04:34:15;;;;;;;8.60;5.72;;;;;;;16.27;100.00;102428.53;5094414;28;20032;-73
2023/10/08 04:36:54;;;;;;;8.07;5.28;;;;;;;16.27;100.00;102431.19;5094269;28;20103;-73
2023/10/08 04:39:26;;;;;;;8.95;5.03;;;;;;;16.25;100.00;102422.47;5094056;28;20032;-73
2023/10/08 04:42:00;;;;;;;6.85;5.05;;;;;;;16.27;100.00;102432.97;5094516;28;20040;-73
2023/10/08 04:44:25;;;;;;;5.63;4.55;;;;;;;16.27;100.00;102425.91;5085705;28;20044;-73
2023/10/08 04:46:52;;;;;;;7.38;5.15;;;;;;;16.28;100.00;102434.69;5073629;28;20047;-73
2023/10/08 04:49:28;;;;;;;8.38;5.15;;;;;;;16.27;100.00;102439.13;5074044;28;20036;-73
2023/10/08 04:51:56;;;;;;;7.03;5.45;;;;;;;16.26;100.00;102434.78;5074173;28;20558;-73
2023/10/08 04:54:29;;;;;;;10.40;6.25;;;;;;;16.25;100.00;102442.75;5074201;28;20036;-73
2023/10/08 04:56:59;;;;;;;6.97;5.20;;;;;;;16.25;100.00;102455.97;5074357;28;20445;-73
2023/10/08 04:59:34;;;;;;;8.32;5.70;;;;;;;16.21;100.00;102452.59;5074039;28;20028;-73
2023/10/08 05:07:39;;;;;;;9.25;5.07;;;;;;;16.17;100.00;102439.53;5075767;28;19920;-73
2023/10/08 05:12:37;;;;;;;10.05;5.55;;;;;;;16.13;100.00;102407.09;5077156;28;20074;-73
2023/10/08 05:15:21;;;;;;;7.13;4.95;;;;;;;16.14;100.00;102410.59;5077885;28;20048;-73
2023/10/08 05:25:58;;;;;;;10.27;5.85;;;;;;;16.02;100.00;102441.84;5077594;28;20262;-73
2023/10/08 05:28:27;;;;;;;9.60;5.25;;;;;;;16.04;100.00;102436.50;5081797;28;20255;-73
2023/10/08 05:30:55;;;;;;;15.77;6.68;;;;;;;16.00;100.00;102450.78;5077380;28;20036;-75
2023/10/08 05:33:49;;;;;;;11.45;5.85;;;;;;;16.00;100.00;102440.19;5077266;28;20042;-73
2023/10/08 05:36:18;;;;;;;11.57;5.88;;;;;;;16.00;100.00;102443.69;5077159;28;20052;-73
2023/10/08 05:39:00;;;;;;;8.52;5.50;;;;;;;16.00;100.00;102435.75;5077099;28;20385;-73
2023/10/08 05:41:38;;;;;;;10.68;5.72;;;;;;;16.00;100.00;102430.47;5077118;28;20394;-73
2023/10/08 06:13:09;;;;;;;;;;;;;;;15.59;100.00;102484.81;5095471;28;20043;-73
2023/10/08 06:15:44;;;;;;;15.40;5.93;;;;;;;15.60;100.00;102486.53;5095702;28;19912;-73
2023/10/08 06:18:14;;;;;;;18.83;6.13;;;;;;;15.56;100.00;102493.72;5095301;28;20274;-73
2023/10/08 06:20:43;;;;;;;23.35;6.10;;;;;;;15.58;100.00;102496.31;5087414;28;20094;-73
2023/10/08 06:23:11;;;;;;;12.57;6.00;;;;;;;15.59;100.00;102498.88;5096260;28;20095;-73
2023/10/08 06:25:46;;;;;;;21.08;5.45;;;;;;;15.55;100.00;102500.78;5089840;28;20035;-73
2023/10/08 06:28:27;;;;;;;14.23;5.07;;;;;;;15.57;100.00;102507.75;5096214;28;20210;-73
2023/10/08 06:30:55;;;;;;;14.43;4.18;;;;;;;15.48;100.00;102509.81;5079434;28;20043;-73
2023/10/08 06:33:22;;;;;;;8.77;3.90;;;;;;;15.35;100.00;102508.50;5076642;28;20096;-73
2023/10/08 06:36:02;;;;;;;9.48;3.75;;;;;;;15.38;100.00;102515.47;5091324;28;20269;-73
2023/10/08 06:38:30;;;;;;;14.52;4.63;;;;;;;15.36;100.00;102521.66;5091961;28;20047;-73
2023/10/08 06:41:00;;;;;;;7.63;3.58;;;;;;;15.36;100.00;102518.16;5095792;28;20036;-73
2023/10/08 06:43:28;;;;;;;14.73;4.38;;;;;;;15.35;100.00;102519.06;5094852;28;20357;-73
2023/10/08 06:45:58;;;;;;;10.65;4.80;;;;;;;15.40;100.00;102511.00;5090023;28;20346;-73
2023/10/08 06:48:24;;;;;;;11.85;4.30;;;;;;;15.49;100.00;102518.59;5086574;28;20032;-73
2023/10/08 06:50:51;;;;;;;14.80;5.65;;;;;;;15.47;100.00;102517.78;5088259;28;20048;-73
2023/10/08 06:53:21;;;;;;;12.25;5.13;;;;;;;15.47;100.00;102534.50;5085566;28;20032;-73
2023/10/08 06:55:56;;;;;;;13.20;6.75;;;;;;;15.40;100.00;102545.31;5086268;28;20036;-73
2023/10/08 06:58:25;;;;;;;20.52;7.00;;;;;;;15.32;100.00;102543.81;5084024;28;20105;-73
2023/10/08 07:00:51;;;;;;;23.35;6.95;;;;;;;15.16;100.00;102535.53;5086524;28;20061;-73
2023/10/08 07:03:17;;;;;;;22.50;7.72;;;;;;;15.29;100.00;102543.03;5087065;28;20059;-73
2023/10/08 07:06:00;;;;;;;26.00;7.00;;;;;;;15.35;100.00;102543.72;5084291;28;20331;-73
2023/10/08 07:08:29;;;;;;;16.48;6.10;;;;;;;15.41;100.00;102537.34;5089526;28;20048;-73
2023/10/08 07:10:56;;;;;;;18.67;7.47;;;;;;;15.35;100.00;102541.06;5081577;28;20032;-73
2023/10/08 07:13:22;;;;;;;20.77;7.15;;;;;;;15.35;100.00;102549.00;5086700;28;20323;-73
2023/10/08 07:15:52;;;;;;;30.05;8.73;;;;;;;15.34;100.00;102544.59;5088105;28;20074;-73
2023/10/08 07:18:31;;;;;;;25.27;7.82;;;;;;;15.31;100.00;102543.84;5083327;28;20024;-73
2023/10/08 07:21:00;;;;;;;26.65;8.88;;;;;;;15.42;100.00;102544.34;5085505;28;20238;-73
2023/10/08 07:23:34;;;;;;;24.65;7.60;;;;;;;15.41;100.00;102560.22;5090708;28;20036;-73
2023/10/08 07:26:11;;;;;;;24.58;7.78;;;;;;;15.39;100.00;102564.69;5092634;28;20071;-73
2023/10/08 07:28:48;;;;;;;23.30;7.13;;;;;;;15.30;100.00;102566.75;5094612;28;20031;-73
2023/10/08 07:31:23;;;;;;;32.50;8.18;;;;;;;15.23;100.00;102580.19;5080652;28;20063;-73
2023/10/08 07:34:15;;;;;;;24.83;7.55;;;;;;;15.28;100.00;102578.25;5079848;28;20028;-73
2023/10/08 07:36:42;;;;;;;29.92;7.65;;;;;;;15.18;100.00;102584.75;5084946;28;20099;-73
2023/10/08 07:39:08;;;;;;;28.30;6.85;;;;;;;15.05;100.00;102576.38;5087472;28;20032;-73
2023/10/08 07:41:34;;;;;;;28.88;7.25;;;;;;;15.04;100.00;102580.78;5085517;28;20067;-73
2023/10/08 07:44:00;;;;;;;33.92;6.93;;;;;;;15.12;100.00;102584.03;5091975;28;20032;-73
2023/10/08 07:46:28;;;;;;;22.98;6.72;;;;;;;15.15;100.00;102585.72;5083827;28;20128;-73
2023/10/08 07:48:54;;;;;;;14.05;5.75;;;;;;;15.10;100.00;102591.16;5081711;28;20094;-73
2023/10/08 07:51:23;;;;;;;16.33;5.57;;;;;;;15.15;100.00;102609.47;5072608;28;20339;-73
2023/10/08 07:53:55;;;;;;;24.23;6.45;;;;;;;15.04;100.00;102608.94;5072314;28;20337;-73
2023/10/08 07:56:22;;;;;;;17.88;5.47;;;;;;;15.07;100.00;102604.44;5072611;28;20036;-73
2023/10/08 07:58:47;;;;;;;20.65;5.70;;;;;;;14.94;100.00;102596.03;5071440;28;20282;-73
2023/10/08 08:01:13;;;;;;;14.45;4.85;;;;;;;14.99;100.00;102593.28;5079647;28;20040;-73
2023/10/08 08:03:41;;;;;;;12.93;5.20;;;;;;;15.09;100.00;102599.97;5079449;28;20036;-73
2023/10/08 08:06:08;;;;;;;23.02;5.75;;;;;;;15.10;100.00;102595.56;5080929;28;20044;-73
2023/10/08 08:08:38;;;;;;;16.73;4.88;;;;;;;15.11;100.00;102598.13;5071113;28;20040;-73
2023/10/08 08:11:11;;;;;;;17.13;5.20;;;;;;;15.10;100.00;102601.69;5081811;28;20114;-73
2023/10/08 08:13:38;;;;;;;16.08;5.10;;;;;;;15.15;100.00;102606.81;5080408;28;20044;-73
2023/10/08 08:16:16;;;;;;;16.17;5.47;;;;;;;15.12;100.00;102605.16;5082376;28;20039;-73
2023/10/08 08:18:43;;;;;;;22.47;5.50;;;;;;;15.13;100.00;102603.38;5092638;28;20292;-73
2023/10/08 08:21:17;;;;;;;17.23;5.10;;;;;;;15.19;100.00;102610.22;5092443;28;20107;-73
2023/10/08 08:23:49;;;;;;;13.55;5.68;;;;;;;15.15;100.00;102612.09;5092315;28;20050;-73
2023/10/08 08:26:26;;;;;;;14.10;5.72;;;;;;;15.13;100.00;102622.72;5091704;28;20363;-73
2023/10/08 08:29:04;;;;;;;15.10;5.70;;;;;;;15.14;100.00;102629.72;5088817;28;20024;-73
2023/10/08 08:31:35;;;;;;;17.30;5.60;;;;;;;15.15;100.00;102634.09;5086839;28;20373;-73
2023/10/08 08:34:03;;;;;;;16.33;5.15;;;;;;;15.17;100.00;102634.00;5079460;28;20095;-73
2023/10/08 08:36:31;;;;;;;14.13;5.47;;;;;;;15.17;100.00;102644.56;5084658;28;20063;-73
2023/10/08 08:38:57;;;;;;;16.23;5.68;;;;;;;15.21;100.00;102640.94;5082385;28;20059;-73
2023/10/08 08:41:23;;;;;;;17.33;5.90;;;;;;;15.19;100.00;102640.13;5081935;28;20342;-73
2023/10/08 08:43:58;;;;;;;15.60;5.40;;;;;;;15.19;100.00;102632.22;5075765;28;20047;-73
2023/10/08 08:46:31;;;;;;;16.33;5.40;;;;;;;15.19;100.00;102634.88;5077866;28;20039;-73
2023/10/08 08:49:00;;;;;;;16.00;5.63;;;;;;;15.07;100.00;102638.72;5096298;28;20047;-73
2023/10/08 08:51:27;;;;;;;19.05;7.00;;;;;;;15.04;100.00;102641.44;5084962;28;20130;-73
2023/10/08 08:53:52;;;;;;;13.73;5.82;;;;;;;15.08;100.00;102639.59;5092850;28;20112;-73
2023/10/08 08:56:18;;;;;;;17.92;6.95;;;;;;;15.07;100.00;102635.25;5095923;28;20063;-73
2023/10/08 08:58:44;;;;;;;19.35;6.20;;;;;;;15.07;100.00;102638.72;5095373;28;20331;-73
2023/10/08 09:01:14;;;;;;;19.25;7.25;;;;;;;15.14;100.00;102642.91;5088356;28;20036;-73
2023/10/08 09:03:39;;;;;;;17.83;6.97;;;;;;;15.16;100.00;102642.88;5075490;28;20060;-73
2023/10/08 09:06:05;;;;;;;21.20;7.00;;;;;;;15.11;100.00;102645.63;5075487;28;20043;-73
2023/10/08 09:08:35;;;;;;;14.70;6.65;;;;;;;15.09;100.00;102642.19;5074754;28;20044;-73
2023/10/08 09:11:04;;;;;;;24.52;6.53;;;;;;;15.14;100.00;102642.06;5076718;28;20213;-73
2023/10/08 09:13:32;;;;;;;27.05;6.47;;;;;;;15.09;100.00;102636.06;5074378;28;20028;-73
2023/10/08 09:16:06;;;;;;;23.40;6.87;;;;;;;15.05;100.00;102639.69;5074944;28;20028;-73
2023/10/08 09:18:32;;;;;;;18.77;6.45;;;;;;;15.07;100.00;102629.97;5073775;28;20295;-73
2023/10/08 09:21:10;;;;;;;19.10;6.57;;;;;;;15.09;100.00;102625.50;5074698;28;20098;-73
2023/10/08 09:23:47;;;;;;;19.05;6.65;;;;;;;15.12;100.00;102630.69;5073233;28;20295;-73
2023/10/08 09:26:16;;;;;;;21.23;6.65;;;;;;;15.15;100.00;102631.47;5074147;28;20262;-73
2023/10/08 09:28:46;;;;;;;20.77;5.97;;;;;;;15.17;100.00;102628.75;5073352;28;20059;-73
2023/10/08 09:31:13;;;;;;;17.38;5.20;;;;;;;15.19;100.00;102629.59;5074106;28;20088;-73
2023/10/08 09:33:39;;;;;;;14.07;4.90;;;;;;;15.15;100.00;102631.47;5072883;28;20040;-73
2023/10/08 09:36:05;;;;;;;20.20;5.10;;;;;;;15.20;100.00;102627.81;5072801;28;20047;-73
2023/10/08 09:38:31;;;;;;;14.43;4.45;;;;;;;15.22;100.00;102636.53;5074038;28;20041;-73
2023/10/08 09:41:00;;;;;;;17.67;4.50;;;;;;;15.25;100.00;102652.28;5074876;28;20331;-73
2023/10/08 09:43:26;;;;;;;15.90;4.60;;;;;;;15.28;100.00;102641.59;5074765;28;20060;-73
2023/10/08 09:46:05;;;;;;;15.45;4.65;;;;;;;15.26;100.00;102636.41;5075091;28;20038;-73
2023/10/08 09:48:33;;;;;;;12.45;4.20;;;;;;;15.29;100.00;102625.72;5089905;28;20074;-73
2023/10/08 09:50:59;;;;;;;15.25;5.18;;;;;;;15.37;100.00;102625.47;5091914;28;20032;-73
2023/10/08 09:53:39;;;;;;;16.38;4.85;;;;;;;15.39;100.00;102631.59;5072892;28;20056;-73
2023/10/08 09:56:17;;;;;;;15.70;4.18;;;;;;;15.42;100.00;102635.88;5086720;28;20342;-73
2023/10/08 09:58:44;;;;;;;16.10;4.40;;;;;;;15.44;100.00;102628.78;5092846;28;20043;-73
2023/10/08 10:01:10;;;;;;;14.73;4.43;;;;;;;15.45;100.00;102631.38;5089047;28;20229;-73
2023/10/08 10:03:36;;;;;;;19.42;5.45;;;;;;;15.49;100.00;102629.50;5086827;28;20036;-73
2023/10/08 10:06:01;;;;;;;18.70;5.40;;;;;;;15.51;100.00;102638.22;5089196;28;20020;-73
2023/10/08 10:08:29;;;;;;;17.35;4.38;;;;;;;15.52;100.00;102630.25;5093144;28;20046;-73
2023/10/08 10:10:59;;;;;;;20.02;5.00;;;;;;;15.53;100.00;102624.06;5092156;28;20101;-73
2023/10/08 10:13:28;;;;;;;11.50;3.75;;;;;;;15.55;100.00;102624.88;5074320;28;20220;-73
2023/10/08 10:15:54;;;;;;;15.30;4.35;;;;;;;15.53;100.00;102632.00;5074561;28;20070;-73
2023/10/08 10:18:28;;;;;;;15.10;4.45;;;;;;;15.57;100.00;102631.88;5075455;28;20044;-73
2023/10/08 10:21:03;;;;;;;10.18;4.60;;;;;;;15.60;100.00;102631.78;5093493;28;20266;-73
2023/10/08 10:23:37;;;;;;;18.13;4.90;;;;;;;15.64;100.00;102631.63;5073559;28;20480;-73
2023/10/08 10:26:04;;;;;;;20.27;6.68;;;;;;;15.65;100.00;102640.41;5074201;28;20216;-73
2023/10/08 10:28:30;;;;;;;14.25;5.28;;;;;;;15.69;100.00;102647.31;5073447;28;20331;-73
2023/10/08 10:30:56;;;;;;;24.10;6.97;;;;;;;15.68;100.00;102649.09;5074387;28;20032;-73
2023/10/08 10:33:29;;;;;;;16.20;6.13;;;;;;;15.69;100.00;102647.31;5073653;28;20343;-73
2023/10/08 10:35:55;;;;;;;14.07;5.78;;;;;;;15.79;100.00;102642.59;5074218;28;20278;-73
2023/10/08 10:38:22;;;;;;;23.55;6.35;;;;;;;15.79;100.00;102646.13;5074082;28;20428;-73
2023/10/08 10:40:59;;;;;;;18.13;5.22;;;;;;;15.81;100.00;102639.03;5073529;28;20044;-73
2023/10/08 10:43:36;;;;;;;12.43;4.60;;;;;;;15.83;100.00;102645.09;5073845;28;20047;-73
2023/10/08 10:49:18;;;;;;;15.32;5.10;;;;;;;15.85;100.00;102645.91;5030693;28;20281;-73
2023/10/08 10:51:44;;;;;;;16.93;5.50;;;;;;;15.84;100.00;102640.69;5030991;28;20104;-73
2023/10/08 10:54:10;;;;;;;16.85;5.63;;;;;;;15.84;100.00;102633.59;5054635;28;20295;-73
2023/10/08 10:56:42;;;;;;;16.60;5.75;;;;;;;15.88;100.00;102640.53;5084623;28;20219;-73
2023/10/08 10:59:27;;;;;;;22.23;6.05;;;;;;;15.99;100.00;102637.53;5073585;28;20291;-73
2023/10/08 11:02:05;;;;;;;18.35;5.32;;;;;;;16.00;100.00;102635.75;5073631;28;20540;-73
2023/10/08 11:04:31;;;;;;;15.55;5.55;;;;;;;16.00;100.00;102625.16;5072827;28;20428;-73
2023/10/08 11:06:58;;;;;;;20.70;6.10;;;;;;;16.01;100.00;102627.75;5082024;28;20016;-74
2023/10/08 11:09:38;;;;;;;18.80;5.53;;;;;;;16.06;100.00;102623.19;5093032;28;20047;-73
2023/10/08 11:12:10;;;;;;;22.45;6.00;;;;;;;16.09;100.00;102623.06;5087489;28;20056;-73
2023/10/08 11:14:43;;;;;;;22.05;6.45;;;;;;;16.12;100.00;102619.44;5092824;28;20366;-73
2023/10/08 11:17:17;;;;;;;15.43;5.93;;;;;;;16.14;100.00;102611.47;5091834;28;20032;-73
2023/10/08 11:19:46;;;;;;;12.73;5.68;;;;;;;16.17;100.00;102606.94;5093160;28;20077;-73
2023/10/08 11:22:18;;;;;;;14.65;5.70;;;;;;;16.22;100.00;102614.69;5092737;28;20255;-73
2023/10/08 11:24:48;;;;;;;12.00;5.85;;;;;;;16.27;100.00;102613.59;5093158;28;20066;-73
2023/10/08 11:27:16;;;;;;;19.60;7.05;;;;;;;16.29;100.00;102608.25;5093093;28;20047;-73
2023/10/08 11:29:43;;;;;;;21.00;8.23;;;;;;;16.38;100.00;102615.00;5092980;28;20035;-73
2023/10/08 11:32:12;;;;;;;21.55;7.45;;;;;;;16.39;100.00;102611.41;5086264;28;20082;-73
2023/10/08 11:34:39;;;;;;;22.30;7.55;;;;;;;16.39;100.00;102622.00;5072313;28;20060;-73
2023/10/08 11:37:19;;;;;;;21.40;6.60;;;;;;;16.39;100.00;102622.88;5073127;28;20040;-73
2023/10/08 11:39:46;;;;;;;16.65;7.55;;;;;;;16.42;100.00;102611.31;5072578;28;20070;-73
2023/10/08 11:47:44;;;;;;;21.85;7.22;;;;;;;16.41;100.00;102607.81;5083190;28;20035;-73
2023/10/08 11:50:10;;;;;;;16.88;6.28;;;;;;;16.42;100.00;102613.94;5093223;28;20031;-73
2023/10/08 11:52:41;;;;;;;21.25;6.45;;;;;;;16.49;100.00;102616.31;5094057;28;20054;-73
2023/10/08 11:55:07;;;;;;;13.18;6.15;;;;;;;16.50;100.00;102619.84;5092920;28;20035;-73
2023/10/08 11:57:35;;;;;;;19.58;6.53;;;;;;;16.44;100.00;102609.47;5083268;28;20036;-73
2023/10/08 12:00:16;;;;;;;11.45;6.28;;;;;;;16.45;100.00;102612.06;5072268;28;20419;-73
2023/10/08 12:02:43;;;;;;;13.77;7.22;;;;;;;16.45;100.00;102605.91;5071609;28;20085;-74
2023/10/08 12:05:18;;;;;;;16.63;6.57;;;;;;;16.51;100.00;102611.81;5076561;28;20037;-73
2023/10/08 12:07:47;;;;;;;20.02;7.90;;;;;;;16.55;100.00;102594.06;5089200;28;20052;-73
2023/10/08 12:10:13;;;;;;;14.73;6.68;;;;;;;16.56;100.00;102590.50;5089842;28;20020;-73
2023/10/08 12:12:40;;;;;;;18.02;6.70;;;;;;;16.58;100.00;102586.00;5089602;28;20362;-73
2023/10/08 12:15:08;;;;;;;13.65;6.80;;;;;;;16.58;100.00;102580.72;5089255;28;20073;-73
2023/10/08 12:17:39;;;;;;;15.40;6.70;;;;;;;16.65;100.00;102573.41;5087168;28;20067;-73
2023/10/08 12:20:22;;;;;;;14.10;6.70;;;;;;;16.65;100.00;102568.13;5088301;28;20274;-73
2023/10/08 12:22:49;;;;;;;16.30;7.85;;;;;;;16.64;100.00;102564.59;5088864;28;20040;-73
2023/10/08 12:25:15;;;;;;;17.08;7.00;;;;;;;16.63;100.00;102551.47;5089835;28;20036;-73
2023/10/08 12:27:40;;;;;;;22.52;8.98;;;;;;;16.65;100.00;102562.84;5083120;28;20046;-73
2023/10/08 12:30:10;;;;;;;21.73;9.90;;;;;;;16.65;100.00;102555.75;5089180;28;20044;-75
2023/10/08 12:32:42;;;;;;;22.17;8.48;;;;;;;16.69;100.00;102549.41;5080424;28;20040;-74
2023/10/08 12:35:12;;;;;;;21.17;9.18;;;;;;;16.71;100.00;102546.72;5084499;28;20362;-73